Kezdőlap
METAR-TAF:

METAR-TAF

Repülőterek :

Chatham Municipal Airport

Chatham, Massachusetts, Amerikai Egyesült Államok

földrajzi szélesség: 41-41-15N, földrajzi hosszúság: 069-59-36W, magasság: 20 m

Jelenlegi meteorológiai megfigyelések

A jelentés 10 perccel ezelõtt készült, 11:18 UTC
Dél-délnyugati szél 5 kt
Hőmérséklet 21°C
Páratartalom 83%
Légköri nyomás 1019 hPa
Látótávolság: 16.1 km
Kevés felhő 1700 lábon
Szórványos felhőzet 2200 lábon
Szakadozott felhőzet 7000 lábon

METAR: KCQX 081118Z AUTO 21005KT 10SM FEW017 SCT022 BKN070 21/18 A3009 RMK AO2 T02060183

Idő: 07:28 (11:28 UTC)


TAF: hiányzik

Meteorológiai megfigyelések és előrejelzések több, mint 4000 repülőtéren (METAR és TAF jelentéseket).

A térképen piros és sárga pontok jelzik az elérhető meteorológiai állomásokat.

Mozgassa az egeret a pont fölött, hogy megjelenjen az állomás neve.

Azután kattintson az időjárási megfigyelések és előrejelzések megtekintéséhez.

A térkép megváltoztatása: kattintson a fekete keresztel jelölt zöld gombra ráközelítéshez, a vonallal jelölt zöld gombra távolításhoz, vagy a zöld nyilakra a szomszédos térképek eléréséhez.


METAR-TAF: